Time;durP1;ratioP1;P1;durP2;ratioP2;P2;SDS_P1;SDS_P2;PMS_P1;PMS_P2;Temp;Humidity;BMP_temperature;BMP_pressure;BME280_temperature;BME280_humidity;BME280_pressure;Samples;Min_cycle;Max_cycle;Signal;HPM_P1;HPM_P2
2021/11/18 00:02:44;;;;;;;70.80;27.63;;;4.10;99.90;;;;;;5124029;27;20243;-71
2021/11/18 00:05:33;;;;;;;70.93;28.53;;;4.20;99.90;;;;;;5119203;27;20196;-71
2021/11/18 00:08:21;;;;;;;69.67;28.63;;;4.20;99.90;;;;;;5116067;27;20221;-71
2021/11/18 00:11:09;;;;;;;69.47;28.60;;;4.20;99.90;;;;;;5119556;27;20281;-71
2021/11/18 00:13:57;;;;;;;64.57;28.30;;;4.10;99.90;;;;;;5114401;27;20657;-71
2021/11/18 00:16:45;;;;;;;65.17;25.97;;;4.10;99.90;;;;;;5120913;27;20207;-71
2021/11/18 00:19:32;;;;;;;64.07;26.10;;;4.10;99.90;;;;;;5116807;27;20203;-70
2021/11/18 00:22:21;;;;;;;70.03;27.97;;;4.20;99.90;;;;;;5119092;27;20194;-71
2021/11/18 00:25:09;;;;;;;66.57;27.73;;;4.20;99.90;;;;;;5122542;27;20190;-70
2021/11/18 00:27:57;;;;;;;70.77;28.17;;;4.20;99.90;;;;;;5119219;27;20202;-71
2021/11/18 00:30:44;;;;;;;76.40;29.73;;;4.20;99.90;;;;;;5115141;27;20207;-70
2021/11/18 00:33:32;;;;;;;68.70;26.47;;;4.20;99.90;;;;;;5097389;28;20341;-71
2021/11/18 00:36:20;;;;;;;62.97;25.67;;;4.10;99.90;;;;;;5119729;27;20229;-71
2021/11/18 00:39:09;;;;;;;72.47;29.70;;;4.10;99.90;;;;;;5116943;27;20208;-70
2021/11/18 00:41:56;;;;;;;68.63;28.73;;;4.10;99.90;;;;;;5121502;27;20726;-70
2021/11/18 00:44:44;;;;;;;71.73;27.17;;;4.20;99.90;;;;;;5113942;27;20203;-70
2021/11/18 00:47:31;;;;;;;69.93;28.83;;;4.20;99.90;;;;;;5118692;27;20600;-71
2021/11/18 00:50:19;;;;;;;54.97;23.50;;;4.20;99.90;;;;;;5119522;27;20214;-70
2021/11/18 00:53:07;;;;;;;68.53;25.70;;;4.20;99.90;;;;;;5119494;27;20202;-71
2021/11/18 00:55:56;;;;;;;76.93;28.30;;;4.20;99.90;;;;;;5120407;27;20226;-71
2021/11/18 00:58:44;;;;;;;71.00;28.83;;;4.20;99.90;;;;;;5113463;27;20210;-71
2021/11/18 01:01:35;;;;;;;61.50;24.33;;;4.20;99.90;;;;;;5122452;27;20201;-71
2021/11/18 01:04:24;;;;;;;80.17;29.47;;;4.20;99.90;;;;;;5118451;27;20939;-70
2021/11/18 01:07:12;;;;;;;66.17;26.70;;;4.20;99.90;;;;;;5119663;27;20211;-70
2021/11/18 01:09:59;;;;;;;56.17;22.37;;;4.20;99.90;;;;;;5114763;27;20964;-70
2021/11/18 01:12:48;;;;;;;66.40;28.67;;;4.20;99.90;;;;;;5093979;28;20215;-70
2021/11/18 01:15:37;;;;;;;55.97;24.40;;;4.20;99.90;;;;;;5095259;28;20835;-70
2021/11/18 01:18:25;;;;;;;63.77;25.53;;;4.20;99.90;;;;;;5114800;27;20195;-70
2021/11/18 01:21:12;;;;;;;59.40;26.83;;;4.20;99.90;;;;;;5111294;27;20206;-70
2021/11/18 01:24:00;;;;;;;59.57;26.07;;;4.20;99.90;;;;;;5113793;27;20194;-70
2021/11/18 01:26:48;;;;;;;64.77;25.10;;;4.20;99.90;;;;;;5115753;27;20214;-70
2021/11/18 01:29:37;;;;;;;61.67;25.53;;;4.20;99.90;;;;;;5097678;28;20200;-70
2021/11/18 01:32:24;;;;;;;62.90;26.23;;;4.20;99.90;;;;;;5096918;28;20211;-70
2021/11/18 01:35:12;;;;;;;62.07;26.53;;;4.30;99.90;;;;;;5117548;28;20218;-70
2021/11/18 01:37:59;;;;;;;61.27;25.60;;;4.30;99.90;;;;;;5110241;28;20205;-70
2021/11/18 01:40:49;;;;;;;63.17;25.07;;;4.30;99.90;;;;;;5122636;28;20274;-70
2021/11/18 01:43:37;;;;;;;60.47;25.87;;;4.20;99.90;;;;;;5120089;28;20194;-70
2021/11/18 01:46:27;;;;;;;61.80;27.37;;;4.30;99.90;;;;;;5112913;28;20229;-70
2021/11/18 01:49:14;;;;;;;62.93;26.70;;;4.20;99.90;;;;;;5114179;28;20201;-70
2021/11/18 01:52:04;;;;;;;50.83;22.23;;;4.30;99.90;;;;;;5116590;28;20218;-70
2021/11/18 01:54:51;;;;;;;63.47;27.60;;;4.30;99.90;;;;;;5113736;28;20218;-70
2021/11/18 01:57:39;;;;;;;64.43;28.37;;;4.20;99.90;;;;;;5112784;28;20215;-71
2021/11/18 02:00:28;;;;;;;63.80;25.77;;;4.30;99.90;;;;;;5114549;28;20650;-70
2021/11/18 02:03:17;;;;;;;66.37;28.07;;;4.30;99.90;;;;;;5112340;28;20199;-70
2021/11/18 02:06:07;;;;;;;56.60;25.63;;;4.30;99.90;;;;;;5124752;28;20209;-70
2021/11/18 02:08:55;;;;;;;61.07;27.63;;;4.30;99.90;;;;;;5113868;28;20198;-71
2021/11/18 02:11:44;;;;;;;65.80;27.40;;;4.30;99.90;;;;;;5117794;28;20212;-71
2021/11/18 02:14:32;;;;;;;58.43;26.43;;;4.30;99.90;;;;;;5112804;28;20200;-71
2021/11/18 02:17:20;;;;;;;64.83;29.17;;;4.30;99.90;;;;;;5117325;28;20251;-70
2021/11/18 02:20:17;;;;;;;64.43;27.73;;;4.30;99.90;;;;;;5123387;28;20254;-71
2021/11/18 02:23:10;;;;;;;60.13;27.23;;;4.30;99.90;;;;;;5114766;28;20545;-71
2021/11/18 02:25:57;;;;;;;59.63;27.03;;;4.30;99.90;;;;;;5113161;28;20206;-71
2021/11/18 02:28:46;;;;;;;60.30;26.83;;;4.30;99.90;;;;;;5118195;28;20210;-71
2021/11/18 02:31:36;;;;;;;62.87;27.80;;;4.30;99.90;;;;;;5120620;27;20231;-71
2021/11/18 02:34:29;;;;;;;67.77;27.67;;;4.30;99.90;;;;;;5121870;27;20305;-71
2021/11/18 02:37:18;;;;;;;63.77;26.90;;;4.30;99.90;;;;;;5121393;27;20199;-70
2021/11/18 02:40:09;;;;;;;56.27;25.97;;;4.30;99.90;;;;;;5117948;27;20202;-71
2021/11/18 02:42:57;;;;;;;44.57;18.50;;;4.30;99.90;;;;;;5123715;27;20231;-71
2021/11/18 02:45:46;;;;;;;56.00;25.00;;;4.30;99.90;;;;;;5115027;27;20272;-70
2021/11/18 02:48:34;;;;;;;55.17;25.37;;;4.30;99.90;;;;;;5113828;27;20554;-71
2021/11/18 02:51:21;;;;;;;54.70;24.97;;;4.40;99.90;;;;;;5119703;27;20218;-70
2021/11/18 02:54:11;;;;;;;51.73;21.77;;;4.40;99.90;;;;;;5117698;27;20210;-71
2021/11/18 02:56:58;;;;;;;57.73;26.43;;;4.30;99.90;;;;;;5118870;27;20198;-70
2021/11/18 02:59:46;;;;;;;64.97;26.30;;;4.30;99.90;;;;;;5115574;27;20670;-71
2021/11/18 03:02:33;;;;;;;56.80;26.10;;;4.40;99.90;;;;;;5122195;27;20191;-71
2021/11/18 03:05:21;;;;;;;59.40;25.60;;;4.30;99.90;;;;;;5121888;27;20199;-71
2021/11/18 03:08:08;;;;;;;56.70;26.40;;;4.30;99.90;;;;;;5122280;27;20291;-71
2021/11/18 03:10:57;;;;;;;62.87;26.80;;;4.40;99.90;;;;;;5116729;27;20676;-71
2021/11/18 03:13:45;;;;;;;52.27;23.97;;;4.40;99.90;;;;;;5120391;27;20542;-72
2021/11/18 03:16:32;;;;;;;59.70;26.00;;;4.40;99.90;;;;;;5115402;27;20664;-71
2021/11/18 03:19:20;;;;;;;53.10;24.00;;;4.30;99.90;;;;;;5113400;27;20596;-71
2021/11/18 03:22:07;;;;;;;55.67;25.53;;;4.40;99.90;;;;;;5122995;27;20186;-71
2021/11/18 03:24:55;;;;;;;58.57;25.77;;;4.30;99.90;;;;;;5117602;27;20564;-71
2021/11/18 03:27:44;;;;;;;60.97;27.47;;;4.30;99.90;;;;;;5122362;27;20202;-72
2021/11/18 03:30:35;;;;;;;62.13;27.07;;;4.30;99.90;;;;;;5116393;27;20650;-71
2021/11/18 03:33:25;;;;;;;56.33;24.17;;;4.30;99.90;;;;;;5116122;27;20223;-71
2021/11/18 03:36:13;;;;;;;63.90;27.33;;;4.30;99.90;;;;;;5118010;27;20207;-71
2021/11/18 03:39:00;;;;;;;51.03;23.57;;;4.30;99.90;;;;;;5116563;27;20657;-70
2021/11/18 03:41:49;;;;;;;62.07;27.03;;;4.30;99.90;;;;;;5118190;27;20194;-71
2021/11/18 03:44:39;;;;;;;53.73;24.67;;;4.30;99.90;;;;;;5122399;27;20199;-71
2021/11/18 03:47:26;;;;;;;54.80;21.93;;;4.30;99.90;;;;;;5115543;27;20275;-70
2021/11/18 03:50:14;;;;;;;57.87;25.47;;;4.20;99.90;;;;;;5118666;27;20213;-71
2021/11/18 03:53:02;;;;;;;40.97;18.50;;;4.30;99.90;;;;;;5115694;27;20592;-71
2021/11/18 03:55:49;;;;;;;47.67;20.27;;;4.30;99.90;;;;;;5116139;27;20221;-70
2021/11/18 03:58:37;;;;;;;51.70;21.63;;;4.30;99.90;;;;;;5098369;28;20947;-70
2021/11/18 04:01:26;;;;;;;61.43;25.80;;;4.20;99.90;;;;;;5098675;28;20204;-71
2021/11/18 04:04:15;;;;;;;48.33;23.20;;;4.20;99.90;;;;;;5100403;28;20204;-70
2021/11/18 04:07:03;;;;;;;46.07;20.80;;;4.30;99.90;;;;;;5092864;28;20200;-70
2021/11/18 04:09:50;;;;;;;45.20;20.00;;;4.30;99.90;;;;;;5096578;28;20330;-71
2021/11/18 04:12:39;;;;;;;47.80;21.10;;;4.30;99.90;;;;;;5103946;28;20219;-71
2021/11/18 04:15:27;;;;;;;48.20;22.10;;;4.30;99.90;;;;;;5094294;28;20204;-71
2021/11/18 04:18:16;;;;;;;52.93;24.63;;;4.30;99.90;;;;;;5099653;28;20250;-71
2021/11/18 04:21:04;;;;;;;56.63;23.53;;;4.20;99.90;;;;;;5117522;27;20276;-70
2021/11/18 04:23:51;;;;;;;53.20;23.33;;;4.20;99.90;;;;;;5124302;27;20199;-70
2021/11/18 04:26:39;;;;;;;52.77;25.27;;;4.20;99.90;;;;;;5113020;27;20296;-70
2021/11/18 04:29:28;;;;;;;58.90;26.23;;;4.20;99.90;;;;;;5097476;28;20831;-70
2021/11/18 04:32:17;;;;;;;47.00;22.30;;;4.20;99.90;;;;;;5115606;27;20732;-70
2021/11/18 04:35:07;;;;;;;44.60;23.00;;;4.20;99.90;;;;;;5121481;27;20218;-70
2021/11/18 04:37:54;;;;;;;45.73;20.17;;;4.20;99.90;;;;;;5116545;27;20199;-70
2021/11/18 04:40:43;;;;;;;46.07;22.20;;;4.20;99.90;;;;;;5116107;27;20210;-70
2021/11/18 04:43:32;;;;;;;54.30;26.13;;;4.20;99.90;;;;;;5115619;27;20233;-70
2021/11/18 04:46:20;;;;;;;49.17;24.00;;;4.20;99.90;;;;;;5111833;27;20202;-70
2021/11/18 04:49:08;;;;;;;42.73;20.33;;;4.30;99.90;;;;;;5121282;27;20227;-70
2021/11/18 04:51:57;;;;;;;43.57;21.60;;;4.20;99.90;;;;;;5120737;27;20206;-70
2021/11/18 04:54:45;;;;;;;48.00;22.40;;;4.20;99.90;;;;;;5120311;27;20219;-71
2021/11/18 04:57:32;;;;;;;48.93;23.60;;;4.20;99.90;;;;;;5114274;27;20203;-70
2021/11/18 05:00:21;;;;;;;44.93;21.43;;;4.30;99.90;;;;;;5096814;28;20204;-70
2021/11/18 05:03:09;;;;;;;41.40;18.80;;;4.30;99.90;;;;;;5101593;28;20282;-70
2021/11/18 05:05:57;;;;;;;43.97;21.17;;;4.30;99.90;;;;;;5120475;27;20669;-69
2021/11/18 05:08:46;;;;;;;46.97;22.60;;;4.30;99.90;;;;;;5117877;27;20207;-71
2021/11/18 05:11:33;;;;;;;50.97;23.37;;;4.30;99.90;;;;;;5113607;27;20210;-70
2021/11/18 05:14:21;;;;;;;52.03;22.17;;;4.30;99.90;;;;;;5114572;27;20214;-70
2021/11/18 05:17:09;;;;;;;43.07;19.83;;;4.40;99.90;;;;;;5119617;27;20771;-70
2021/11/18 05:19:56;;;;;;;41.77;20.37;;;4.30;99.90;;;;;;5114671;27;20569;-70
2021/11/18 05:22:44;;;;;;;39.20;18.13;;;4.30;99.90;;;;;;5115119;28;20199;-71
2021/11/18 05:25:33;;;;;;;43.87;20.80;;;4.40;99.90;;;;;;5114142;27;20286;-71
2021/11/18 05:28:21;;;;;;;48.73;22.60;;;4.40;99.90;;;;;;5115115;27;20196;-70
2021/11/18 05:31:08;;;;;;;33.80;17.87;;;4.40;99.90;;;;;;5116393;27;20202;-70
2021/11/18 05:33:56;;;;;;;46.57;22.33;;;4.40;99.90;;;;;;5115699;27;20684;-70
2021/11/18 05:36:44;;;;;;;43.70;21.23;;;4.40;99.90;;;;;;5120951;28;20298;-70
2021/11/18 05:39:31;;;;;;;50.30;23.10;;;4.40;99.90;;;;;;5122694;28;20720;-70
2021/11/18 05:42:20;;;;;;;43.87;21.87;;;4.40;99.90;;;;;;5116955;28;20204;-70
2021/11/18 05:45:10;;;;;;;45.73;20.50;;;4.40;99.90;;;;;;5114605;28;20285;-70
2021/11/18 05:47:57;;;;;;;44.30;22.23;;;4.40;99.90;;;;;;5113917;28;20244;-70
2021/11/18 05:50:49;;;;;;;44.97;22.17;;;4.50;99.90;;;;;;5118619;28;20207;-71
2021/11/18 05:53:38;;;;;;;44.23;19.83;;;4.50;99.90;;;;;;5113503;28;20712;-70
2021/11/18 05:56:26;;;;;;;49.00;22.67;;;4.50;99.90;;;;;;5120876;28;20218;-70
2021/11/18 05:59:15;;;;;;;45.93;20.23;;;4.40;99.90;;;;;;5116388;28;20202;-71
2021/11/18 06:02:02;;;;;;;49.93;21.57;;;4.50;99.90;;;;;;5122654;28;20625;-70
2021/11/18 06:04:50;;;;;;;49.37;21.97;;;4.50;99.90;;;;;;5117567;28;20191;-70
2021/11/18 06:08:08;;;;;;;54.73;24.10;;;4.50;99.90;;;;;;5116110;27;20638;-70
2021/11/18 06:10:56;;;;;;;56.10;24.03;;;4.50;99.90;;;;;;5119775;27;20273;-70
2021/11/18 06:13:48;;;;;;;47.63;23.27;;;4.50;99.90;;;;;;5126814;27;20233;-70
2021/11/18 06:16:37;;;;;;;47.07;22.57;;;4.50;99.90;;;;;;5118465;27;20226;-70
2021/11/18 06:19:25;;;;;;;51.20;23.43;;;4.50;99.90;;;;;;5123909;27;20190;-70
2021/11/18 06:22:12;;;;;;;47.30;22.70;;;4.50;99.90;;;;;;5114860;27;20207;-70
2021/11/18 06:25:00;;;;;;;41.60;19.03;;;4.50;99.90;;;;;;5113980;27;20198;-70
2021/11/18 06:27:48;;;;;;;57.70;24.13;;;4.50;99.90;;;;;;5121604;27;20194;-70
2021/11/18 06:30:37;;;;;;;47.90;24.27;;;4.50;99.90;;;;;;5113377;27;20202;-70
2021/11/18 06:33:27;;;;;;;51.23;24.23;;;4.50;99.90;;;;;;5122554;27;20593;-70
2021/11/18 06:36:14;;;;;;;51.73;25.70;;;4.60;99.90;;;;;;5124855;27;20559;-70
2021/11/18 06:39:02;;;;;;;52.67;23.80;;;4.60;99.90;;;;;;5126446;27;20206;-70
2021/11/18 06:41:50;;;;;;;56.10;24.60;;;4.50;99.90;;;;;;5114945;27;20203;-70
2021/11/18 06:44:37;;;;;;;62.93;26.20;;;4.60;99.90;;;;;;5123250;27;20279;-69
2021/11/18 06:47:25;;;;;;;64.20;27.80;;;4.60;99.90;;;;;;5123369;27;20286;-70
2021/11/18 06:50:14;;;;;;;55.93;26.93;;;4.60;99.90;;;;;;5113480;27;20211;-70
2021/11/18 06:53:01;;;;;;;68.40;29.10;;;4.60;99.90;;;;;;5124491;27;20218;-70
2021/11/18 06:55:49;;;;;;;63.40;28.40;;;4.70;99.90;;;;;;5128466;27;21703;-70
2021/11/18 06:58:36;;;;;;;57.40;27.43;;;4.70;99.90;;;;;;5114385;27;20195;-70
2021/11/18 07:01:24;;;;;;;60.37;28.50;;;4.70;99.90;;;;;;5126231;27;20247;-70
2021/11/18 07:04:12;;;;;;;47.53;21.20;;;4.80;99.90;;;;;;5125147;27;20199;-70
2021/11/18 07:07:01;;;;;;;64.97;30.90;;;4.70;99.90;;;;;;5126813;27;20658;-70
2021/11/18 07:09:48;;;;;;;69.00;28.20;;;4.80;99.90;;;;;;5121196;27;20207;-70
2021/11/18 07:12:36;;;;;;;60.60;28.70;;;4.80;99.90;;;;;;5126709;27;20222;-70
2021/11/18 07:15:24;;;;;;;56.67;27.63;;;4.80;99.90;;;;;;5114663;27;20199;-70
2021/11/18 07:18:12;;;;;;;69.70;31.83;;;4.90;99.90;;;;;;5125615;27;20327;-70
2021/11/18 07:20:59;;;;;;;58.97;24.10;;;4.90;99.90;;;;;;5113055;27;20260;-70
2021/11/18 07:23:48;;;;;;;69.37;31.70;;;4.90;99.90;;;;;;5117651;27;20195;-70
2021/11/18 07:26:37;;;;;;;63.37;29.13;;;4.90;99.90;;;;;;5116249;27;20646;-70
2021/11/18 07:29:25;;;;;;;62.97;28.63;;;5.00;99.90;;;;;;5116749;27;20201;-70
2021/11/18 07:32:12;;;;;;;66.77;29.20;;;5.20;99.90;;;;;;5117547;27;20203;-70
2021/11/18 07:35:00;;;;;;;62.17;28.03;;;5.30;99.90;;;;;;5118049;27;20232;-71
2021/11/18 07:37:48;;;;;;;60.60;27.63;;;5.30;99.90;;;;;;5124348;27;20201;-70
2021/11/18 07:40:37;;;;;;;58.03;25.73;;;5.30;99.90;;;;;;5120085;27;20206;-70
2021/11/18 07:43:26;;;;;;;49.17;22.97;;;5.20;99.90;;;;;;5126144;27;20343;-70
2021/11/18 07:46:15;;;;;;;51.00;24.23;;;5.10;99.90;;;;;;5119631;27;20261;-70
2021/11/18 07:49:02;;;;;;;55.97;26.17;;;5.00;99.90;;;;;;5121693;27;20210;-70
2021/11/18 07:51:50;;;;;;;45.93;23.17;;;5.00;99.90;;;;;;5121266;27;22386;-70
2021/11/18 07:54:38;;;;;;;46.13;21.67;;;5.00;99.90;;;;;;5114527;27;20223;-70
2021/11/18 07:57:26;;;;;;;52.30;25.77;;;4.90;99.90;;;;;;5127635;27;20663;-71
2021/11/18 08:00:16;;;;;;;55.10;25.37;;;5.00;99.90;;;;;;5130328;27;20576;-69
2021/11/18 08:03:06;;;;;;;54.97;26.57;;;5.00;99.90;;;;;;5114748;27;20206;-70
2021/11/18 08:05:54;;;;;;;54.00;24.70;;;5.00;99.90;;;;;;5120688;27;20203;-69
2021/11/18 08:08:47;;;;;;;61.37;27.60;;;5.10;99.90;;;;;;5118727;27;20206;-70
2021/11/18 08:11:36;;;;;;;56.33;26.87;;;5.10;99.90;;;;;;5120393;27;20275;-70
2021/11/18 08:14:25;;;;;;;57.83;26.27;;;5.10;99.90;;;;;;5124768;27;20309;-70
2021/11/18 08:17:13;;;;;;;59.03;26.03;;;5.00;99.90;;;;;;5122903;27;20202;-70
2021/11/18 08:20:01;;;;;;;59.63;26.53;;;5.00;99.90;;;;;;5127867;27;20253;-69
2021/11/18 08:22:49;;;;;;;47.83;23.23;;;5.00;99.90;;;;;;5119916;27;20574;-70
2021/11/18 08:25:36;;;;;;;53.53;26.20;;;4.90;99.90;;;;;;5127700;27;20281;-69
2021/11/18 08:28:24;;;;;;;56.27;26.33;;;5.00;99.90;;;;;;5118519;27;20203;-70
2021/11/18 08:31:14;;;;;;;54.77;26.10;;;5.10;99.90;;;;;;5118559;27;20275;-69
2021/11/18 08:34:01;;;;;;;57.97;23.53;;;5.10;99.90;;;;;;5120180;27;20223;-69
2021/11/18 08:36:50;;;;;;;52.60;24.53;;;5.20;99.90;;;;;;5122111;27;20195;-69
2021/11/18 08:39:38;;;;;;;51.90;24.50;;;5.30;99.90;;;;;;5126425;27;20198;-69
2021/11/18 08:42:26;;;;;;;54.63;25.57;;;5.40;99.90;;;;;;5121958;27;20713;-69
2021/11/18 08:45:13;;;;;;;43.67;21.03;;;5.40;99.90;;;;;;5120584;27;20198;-70
2021/11/18 08:48:03;;;;;;;48.67;23.23;;;5.40;99.90;;;;;;5111734;27;20300;-70
2021/11/18 08:50:51;;;;;;;54.67;24.63;;;5.40;99.90;;;;;;5119466;27;20559;-69
2021/11/18 08:53:40;;;;;;;50.80;25.23;;;5.40;99.90;;;;;;5122034;27;20210;-69
2021/11/18 08:56:28;;;;;;;60.60;25.10;;;5.50;99.90;;;;;;5119686;27;20554;-69
2021/11/18 08:59:15;;;;;;;50.43;24.13;;;5.60;99.90;;;;;;5113610;27;20206;-69
2021/11/18 09:02:10;;;;;;;50.40;23.40;;;5.60;99.90;;;;;;5121149;27;20210;-69
2021/11/18 09:04:59;;;;;;;50.33;23.47;;;5.70;99.90;;;;;;5121911;27;20268;-70
2021/11/18 09:07:47;;;;;;;47.60;20.90;;;5.80;99.90;;;;;;5117011;27;20204;-69
2021/11/18 09:10:35;;;;;;;43.10;20.67;;;5.80;99.90;;;;;;5120250;27;20192;-69
2021/11/18 09:13:23;;;;;;;47.30;22.07;;;5.70;99.90;;;;;;5119757;27;20696;-70
2021/11/18 09:16:10;;;;;;;44.40;20.13;;;5.70;99.90;;;;;;5116761;27;20277;-70
2021/11/18 09:18:58;;;;;;;39.63;18.90;;;5.70;99.90;;;;;;5121546;27;20557;-70
2021/11/18 09:21:48;;;;;;;49.93;21.23;;;5.60;99.90;;;;;;5113395;27;20201;-70
2021/11/18 09:24:38;;;;;;;47.93;22.50;;;5.50;99.90;;;;;;5123665;27;20198;-70
2021/11/18 09:27:28;;;;;;;39.73;18.27;;;5.50;99.90;;;;;;5119851;27;20205;-69
2021/11/18 09:30:17;;;;;;;46.00;22.27;;;5.40;99.90;;;;;;5111906;27;20246;-70
2021/11/18 09:33:06;;;;;;;44.87;19.27;;;5.40;99.90;;;;;;5117012;27;20313;-70
2021/11/18 09:35:55;;;;;;;50.10;21.57;;;5.40;99.90;;;;;;5126387;27;20203;-70
2021/11/18 09:38:44;;;;;;;47.03;21.70;;;5.40;99.90;;;;;;5125542;28;20233;-70
2021/11/18 09:41:50;;;;;;;44.40;21.03;;;5.50;99.90;;;;;;5124145;27;20217;-70
2021/11/18 09:45:13;;;;;;;51.90;23.17;;;5.60;99.90;;;;;;5121342;27;20613;-71
2021/11/18 09:48:31;;;;;;;46.50;20.53;;;5.80;99.90;;;;;;5125149;27;20195;-69
2021/11/18 09:51:47;;;;;;;42.67;17.80;;;5.80;99.90;;;;;;5122253;27;20191;-70
2021/11/18 09:54:49;;;;;;;44.77;20.13;;;6.00;99.90;;;;;;5122521;27;20214;-69
2021/11/18 09:57:55;;;;;;;31.80;15.13;;;6.10;99.90;;;;;;5122486;27;20270;-69
2021/11/18 10:00:48;;;;;;;43.27;18.37;;;6.20;99.90;;;;;;5122397;27;20205;-69
2021/11/18 10:03:38;;;;;;;21.73;8.60;;;6.30;99.90;;;;;;5117263;27;20204;-69
2021/11/18 10:06:27;;;;;;;31.33;15.17;;;6.20;99.90;;;;;;5122152;27;20201;-70
2021/11/18 10:09:16;;;;;;;41.27;17.90;;;6.20;99.90;;;;;;5130632;27;20213;-69
2021/11/18 10:12:08;;;;;;;39.43;17.03;;;6.20;99.90;;;;;;5127556;27;20202;-69
2021/11/18 10:14:57;;;;;;;36.07;16.57;;;6.20;99.90;;;;;;5123409;27;20274;-70
2021/11/18 10:17:49;;;;;;;35.10;15.93;;;6.10;99.90;;;;;;5127097;27;20195;-69
2021/11/18 10:20:38;;;;;;;33.50;15.43;;;6.10;99.90;;;;;;5130928;27;20287;-70
2021/11/18 10:23:26;;;;;;;31.30;13.97;;;6.10;99.90;;;;;;5123246;27;20200;-70
2021/11/18 10:26:15;;;;;;;34.77;14.07;;;6.20;99.90;;;;;;5118045;27;20204;-69
2021/11/18 10:29:12;;;;;;;32.50;13.50;;;6.20;99.90;;;;;;5122438;27;20211;-70
2021/11/18 10:32:13;;;;;;;29.17;13.17;;;6.20;99.90;;;;;;5127016;27;20190;-70
2021/11/18 10:35:11;;;;;;;31.57;13.77;;;6.10;99.90;;;;;;5129876;27;20223;-70
2021/11/18 10:38:21;;;;;;;26.43;12.33;;;6.10;99.90;;;;;;5121395;27;20195;-70
2021/11/18 10:41:19;;;;;;;26.70;12.93;;;6.10;99.90;;;;;;5122510;27;20215;-69
2021/11/18 10:44:17;;;;;;;25.30;11.53;;;6.10;99.90;;;;;;5124555;27;21976;-70
2021/11/18 10:47:07;;;;;;;29.83;12.30;;;6.10;99.90;;;;;;5123268;27;20672;-69
2021/11/18 10:50:02;;;;;;;30.67;12.57;;;6.10;99.90;;;;;;5116485;27;20290;-69
2021/11/18 10:53:02;;;;;;;32.60;12.80;;;6.10;99.90;;;;;;5121008;27;20222;-71
2021/11/18 10:55:50;;;;;;;32.30;13.17;;;6.20;99.90;;;;;;5115619;27;20226;-70
2021/11/18 10:58:39;;;;;;;26.40;12.23;;;6.20;99.90;;;;;;5117673;27;20196;-70
2021/11/18 11:01:35;;;;;;;29.60;11.67;;;6.20;99.90;;;;;;5127904;27;20202;-70
2021/11/18 11:04:37;;;;;;;32.43;12.57;;;6.30;99.90;;;;;;5115381;27;20283;-70
2021/11/18 11:07:36;;;;;;;20.30;9.50;;;6.30;99.90;;;;;;5119153;27;20237;-70
2021/11/18 11:10:25;;;;;;;30.47;12.97;;;6.30;99.90;;;;;;5123387;27;20212;-70
2021/11/18 11:13:24;;;;;;;31.77;12.00;;;6.30;99.90;;;;;;5119131;27;20324;-70
2021/11/18 11:16:22;;;;;;;30.00;12.03;;;6.20;99.90;;;;;;5113459;27;20556;-70
2021/11/18 11:19:14;;;;;;;28.27;13.30;;;6.20;99.90;;;;;;5124560;27;20207;-70
2021/11/18 11:22:05;;;;;;;29.27;14.03;;;6.10;99.90;;;;;;5112879;27;20206;-70
2021/11/18 11:25:24;;;;;;;34.33;14.20;;;6.10;99.90;;;;;;5121253;27;20195;-70
2021/11/18 11:29:06;;;;;;;27.70;12.23;;;6.00;99.90;;;;;;5113908;27;20206;-70
2021/11/18 11:31:59;;;;;;;31.47;14.73;;;6.00;99.90;;;;;;5031649;28;20206;-70
2021/11/18 11:34:58;;;;;;;33.73;13.43;;;6.00;99.90;;;;;;5026388;28;20248;-69
2021/11/18 11:38:17;;;;;;;28.63;13.30;;;6.00;99.90;;;;;;5028565;28;20198;-69
2021/11/18 11:41:27;;;;;;;40.80;12.57;;;6.00;99.90;;;;;;5021213;28;20217;-69
2021/11/18 11:44:19;;;;;;;29.70;13.13;;;6.00;99.90;;;;;;5020671;28;20284;-69
2021/11/18 11:47:13;;;;;;;30.13;12.07;;;6.00;99.90;;;;;;5025059;28;20701;-69
2021/11/18 11:50:08;;;;;;;30.17;13.23;;;5.90;99.90;;;;;;5010549;28;20638;-69
2021/11/18 11:53:01;;;;;;;26.30;13.03;;;5.90;99.90;;;;;;5012236;28;20203;-71
2021/11/18 11:55:57;;;;;;;32.37;13.67;;;5.90;99.90;;;;;;5018811;28;20347;-70
2021/11/18 11:58:55;;;;;;;23.47;12.63;;;5.90;99.90;;;;;;5013866;28;20289;-69
2021/11/18 12:01:49;;;;;;;35.27;14.17;;;5.90;99.90;;;;;;5025875;28;20227;-69
2021/11/18 12:04:38;;;;;;;32.87;12.87;;;6.00;99.90;;;;;;5022090;28;20217;-69
2021/11/18 12:07:30;;;;;;;29.73;14.67;;;5.90;99.90;;;;;;5113101;27;20192;-69
2021/11/18 12:10:25;;;;;;;32.27;13.70;;;6.00;99.90;;;;;;5112609;27;20195;-69
2021/11/18 12:13:35;;;;;;;32.43;13.27;;;6.00;99.90;;;;;;5121245;27;20264;-69
2021/11/18 12:16:26;;;;;;;33.43;13.93;;;6.10;99.90;;;;;;5117435;27;20314;-71
2021/11/18 12:19:22;;;;;;;36.20;13.80;;;6.10;99.90;;;;;;5116866;27;20201;-70
2021/11/18 12:22:46;;;;;;;35.80;14.63;;;6.10;99.90;;;;;;5112804;27;20219;-69
2021/11/18 12:25:46;;;;;;;30.57;13.30;;;6.10;99.90;;;;;;5117656;27;20194;-69
2021/11/18 12:28:35;;;;;;;26.30;11.77;;;6.10;99.90;;;;;;5116942;27;20213;-69
2021/11/18 12:31:30;;;;;;;31.00;12.73;;;6.10;99.90;;;;;;5117967;27;20203;-70
2021/11/18 12:34:22;;;;;;;29.67;13.10;;;6.10;99.90;;;;;;5111248;27;20705;-70
2021/11/18 12:37:22;;;;;;;32.17;13.83;;;6.10;99.90;;;;;;5125555;27;20200;-69
2021/11/18 12:40:29;;;;;;;28.07;13.83;;;6.10;99.90;;;;;;5115365;27;20194;-69
2021/11/18 12:43:41;;;;;;;29.97;12.63;;;6.10;99.90;;;;;;5123259;27;20654;-70
2021/11/18 12:46:32;;;;;;;28.63;13.97;;;6.00;99.90;;;;;;5115516;27;20190;-69
2021/11/18 12:49:20;;;;;;;30.40;13.90;;;6.10;99.90;;;;;;5114620;27;20564;-69
2021/11/18 12:52:20;;;;;;;28.40;11.53;;;6.10;99.90;;;;;;5114976;27;20195;-70
2021/11/18 12:55:48;;;;;;;27.80;13.90;;;6.00;99.90;;;;;;5114198;27;20218;-69
2021/11/18 12:58:58;;;;;;;34.43;13.57;;;6.00;99.90;;;;;;5120153;27;20886;-70
2021/11/18 13:01:58;;;;;;;31.53;14.43;;;6.00;99.90;;;;;;5099068;28;20818;-69
2021/11/18 13:04:49;;;;;;;35.33;14.53;;;6.00;99.90;;;;;;5112405;27;20206;-69
2021/11/18 13:07:45;;;;;;;29.17;12.33;;;6.00;99.90;;;;;;5118984;27;20207;-70
2021/11/18 13:10:39;;;;;;;29.17;12.77;;;6.00;99.90;;;;;;5115252;27;20606;-70
2021/11/18 13:13:39;;;;;;;35.13;15.17;;;6.00;99.90;;;;;;5091022;28;20249;-70
2021/11/18 13:16:39;;;;;;;36.93;15.47;;;6.00;99.90;;;;;;5096465;28;20230;-70
2021/11/18 13:19:31;;;;;;;36.97;16.13;;;6.10;99.90;;;;;;5124390;27;20195;-71
2021/11/18 13:22:26;;;;;;;36.17;16.00;;;6.00;99.90;;;;;;5117496;27;20209;-69
2021/11/18 13:25:16;;;;;;;39.13;18.47;;;6.10;99.90;;;;;;5115143;27;20195;-69
2021/11/18 13:28:09;;;;;;;38.77;17.50;;;6.00;99.90;;;;;;5114345;27;20274;-70
2021/11/18 13:30:58;;;;;;;38.17;18.33;;;6.00;99.90;;;;;;5118736;27;20211;-69
2021/11/18 13:33:47;;;;;;;38.90;17.17;;;6.10;99.90;;;;;;5111495;28;20260;-69
2021/11/18 13:36:35;;;;;;;42.40;19.37;;;6.10;99.90;;;;;;5114593;27;20212;-69
2021/11/18 13:39:25;;;;;;;38.03;18.50;;;6.10;99.90;;;;;;5124970;28;20198;-69
2021/11/18 13:42:21;;;;;;;38.80;19.70;;;6.10;99.90;;;;;;5116373;28;20211;-70
2021/11/18 13:45:12;;;;;;;36.50;16.20;;;6.10;99.90;;;;;;5113925;28;20199;-69
2021/11/18 13:48:03;;;;;;;36.60;16.90;;;6.10;99.90;;;;;;5112957;28;20194;-69
2021/11/18 13:50:56;;;;;;;40.43;16.70;;;6.10;99.90;;;;;;5125809;28;20195;-69
2021/11/18 13:53:45;;;;;;;39.63;18.90;;;6.10;99.90;;;;;;5115566;28;20205;-69
2021/11/18 13:56:40;;;;;;;49.40;23.77;;;6.10;99.90;;;;;;5115751;28;20567;-69
2021/11/18 13:59:29;;;;;;;43.17;20.90;;;6.10;99.90;;;;;;5111557;28;20665;-69
2021/11/18 14:02:26;;;;;;;44.20;21.40;;;6.10;99.90;;;;;;5114899;28;20200;-70
2021/11/18 14:05:15;;;;;;;34.60;16.73;;;6.20;99.90;;;;;;5114928;28;20191;-70
2021/11/18 14:08:07;;;;;;;40.37;20.23;;;6.20;99.90;;;;;;5114199;28;20199;-69
2021/11/18 14:10:57;;;;;;;34.70;18.17;;;6.30;99.90;;;;;;5115034;28;20255;-70
2021/11/18 14:13:47;;;;;;;41.57;20.63;;;6.30;99.90;;;;;;5116956;28;20203;-70
2021/11/18 14:16:37;;;;;;;31.80;16.40;;;6.30;99.90;;;;;;5110309;28;20238;-70
2021/11/18 14:19:27;;;;;;;35.30;17.73;;;6.30;99.90;;;;;;5116293;28;20286;-71
2021/11/18 14:22:15;;;;;;;34.80;18.13;;;6.30;99.90;;;;;;5121860;28;20545;-70
2021/11/18 14:25:29;;;;;;;36.33;17.67;;;6.30;99.90;;;;;;5123797;28;20590;-71
2021/11/18 14:28:32;;;;;;;45.27;19.43;;;6.30;99.90;;;;;;5124485;27;20208;-70
2021/11/18 14:31:30;;;;;;;41.20;18.50;;;6.20;99.90;;;;;;5126526;27;20674;-70
2021/11/18 14:34:30;;;;;;;39.87;16.40;;;6.30;99.90;;;;;;5119346;27;20228;-69
2021/11/18 14:37:29;;;;;;;37.83;17.70;;;6.20;99.90;;;;;;5127563;27;20547;-70
2021/11/18 14:40:23;;;;;;;34.17;17.17;;;6.20;99.90;;;;;;5116713;27;20224;-70